Terminal Aerodrome Forecast
Issued by NWS

Current Version | Previous Version | Text Only | Print | Product List | Glossary On
Versions: 1 2 3 4 5 6 7 8 9 10 11 12 13 14 15
000
FTUS42 TJSJ 240532
TAFIST
TAF
TIST 240532Z 2406/2506 08007KT P6SM FEW030
     FM241230 13014KT P6SM SCT030
     FM242200 08008KT P6SM SCT030=

USA.gov is the U.S. government's official web portal to all federal, state and local government web resources and services.